Time;durP1;ratioP1;P1;durP2;ratioP2;P2;SDS_P1;SDS_P2;PMS_P1;PMS_P2;Temp;Humidity;BMP_temperature;BMP_pressure;BME280_temperature;BME280_humidity;BME280_pressure;Samples;Min_cycle;Max_cycle;Signal;HPM_P1;HPM_P2
2022/09/07 00:00:53;;;;;;;9.00;6.00;;;;;;;16.57;100.00;101141.09;5056544;28;20137;-88
2022/09/07 00:03:20;;;;;;;9.75;6.63;;;;;;;16.53;100.00;101148.13;5056231;28;20028;-88
2022/09/07 00:05:51;;;;;;;6.63;5.10;;;;;;;16.43;100.00;101145.22;5055727;28;20024;-88
2022/09/07 00:08:21;;;;;;;8.88;4.93;;;;;;;16.35;100.00;101143.72;5056174;28;20025;-88
2022/09/07 00:10:55;;;;;;;7.60;4.80;;;;;;;16.26;100.00;101123.31;5056097;28;20021;-88
2022/09/07 00:13:25;;;;;;;8.65;5.13;;;;;;;16.19;100.00;101111.69;5056018;28;20024;-88
2022/09/07 00:15:51;;;;;;;8.52;5.05;;;;;;;16.21;100.00;101110.38;5056029;28;20032;-88
2022/09/07 00:18:19;;;;;;;7.07;4.47;;;;;;;16.16;100.00;101110.25;5056275;28;20509;-88
2022/09/07 00:21:00;;;;;;;7.22;4.72;;;;;;;16.06;100.00;101107.34;5039857;28;20028;-88
2022/09/07 00:23:29;;;;;;;6.88;4.72;;;;;;;16.04;100.00;101115.78;5055833;28;20036;-88
2022/09/07 00:26:02;;;;;;;6.05;4.53;;;;;;;15.92;100.00;101110.38;5056164;28;20040;-88
2022/09/07 00:28:31;;;;;;;8.07;4.93;;;;;;;15.93;100.00;101108.50;5056463;28;20033;-88
2022/09/07 00:30:59;;;;;;;9.33;5.87;;;;;;;15.89;100.00;101116.34;5055821;28;20504;-88
2022/09/07 00:33:25;;;;;;;7.50;5.63;;;;;;;15.84;100.00;101109.94;5055666;28;20111;-88
2022/09/07 00:35:50;;;;;;;9.00;6.13;;;;;;;15.81;100.00;101114.00;5055214;28;20121;-88
2022/09/07 00:38:20;;;;;;;12.60;6.30;;;;;;;15.76;100.00;101103.75;5073646;28;20021;-88
2022/09/07 00:40:48;;;;;;;9.30;6.43;;;;;;;15.75;100.00;101099.38;5056032;28;20063;-88
2022/09/07 00:43:30;;;;;;;9.73;6.27;;;;;;;15.74;100.00;101096.88;5039548;28;20062;-87
2022/09/07 00:45:56;;;;;;;10.30;6.68;;;;;;;15.69;100.00;101083.09;5073327;28;20044;-88
2022/09/07 00:48:29;;;;;;;11.80;6.22;;;;;;;15.68;100.00;101076.78;5073361;28;20493;-88
2022/09/07 00:51:00;;;;;;;12.53;6.67;;;;;;;15.63;100.00;101071.22;5055508;28;20036;-88
2022/09/07 00:53:33;;;;;;;12.23;6.72;;;;;;;15.60;100.00;101066.22;5073515;28;20070;-88
2022/09/07 00:56:02;;;;;;;9.73;6.65;;;;;;;15.62;100.00;101055.91;5073527;28;20036;-88
2022/09/07 00:58:33;;;;;;;10.13;6.50;;;;;;;15.63;100.00;101062.19;5055345;28;20036;-87
2022/09/07 01:01:03;;;;;;;8.73;5.88;;;;;;;15.59;100.00;101056.38;5039468;28;20123;-88
2022/09/07 01:03:44;;;;;;;9.67;6.43;;;;;;;15.57;100.00;101056.59;5056070;28;20037;-88
2022/09/07 01:06:24;;;;;;;10.07;6.20;;;;;;;15.53;100.00;101069.13;5055173;28;20082;-88
2022/09/07 01:08:50;;;;;;;11.20;6.20;;;;;;;15.49;100.00;101070.69;5055581;28;20033;-88
2022/09/07 01:11:22;;;;;;;7.93;5.87;;;;;;;15.48;100.00;101066.28;5055136;28;20028;-89
2022/09/07 01:13:49;;;;;;;10.85;6.03;;;;;;;15.50;100.00;101063.28;5077125;28;20033;-88
2022/09/07 01:16:35;;;;;;;11.18;6.30;;;;;;;15.51;100.00;101064.97;5077351;28;20036;-87
2022/09/07 01:19:27;;;;;;;13.43;6.55;;;;;;;15.51;100.00;101067.69;5059613;28;20028;-88
2022/09/07 01:21:58;;;;;;;9.65;6.38;;;;;;;15.50;100.00;101072.34;5077696;28;20036;-88
2022/09/07 01:24:42;;;;;;;7.43;5.67;;;;;;;15.50;100.00;101075.09;5077458;28;20020;-88
2022/09/07 01:27:26;;;;;;;9.10;5.75;;;;;;;15.50;100.00;101066.03;5059569;28;20059;-88
2022/09/07 01:30:08;;;;;;;11.18;6.00;;;;;;;15.49;100.00;101065.22;5059424;28;20040;-88
2022/09/07 01:33:06;;;;;;;9.38;5.53;;;;;;;15.51;100.00;101078.63;5059298;28;20024;-88
2022/09/07 01:36:13;;;;;;;8.63;5.40;;;;;;;15.50;100.00;101074.22;5058877;28;20032;-88
2022/09/07 01:38:51;;;;;;;9.40;5.30;;;;;;;15.46;100.00;101073.06;5058537;28;20037;-87
2022/09/07 01:41:25;;;;;;;22.95;6.18;;;;;;;15.44;100.00;101079.63;5059173;28;20085;-88
2022/09/07 01:44:09;;;;;;;9.02;5.47;;;;;;;15.43;100.00;101077.94;5058863;28;20029;-89
2022/09/07 01:47:07;;;;;;;6.93;5.22;;;;;;;15.41;100.00;101071.03;5058833;28;20032;-89
2022/09/07 01:49:46;;;;;;;9.00;6.07;;;;;;;15.43;100.00;101066.19;5059096;28;20029;-88
2022/09/07 01:52:47;;;;;;;7.63;5.77;;;;;;;15.39;100.00;101063.09;5059061;28;20037;-88
2022/09/07 01:55:20;;;;;;;9.15;6.00;;;;;;;15.42;100.00;101068.06;5070916;28;20111;-88
2022/09/07 01:58:00;;;;;;;9.05;5.53;;;;;;;15.38;100.00;101087.94;5059022;28;20032;-88
2022/09/07 02:00:28;;;;;;;8.70;5.35;;;;;;;15.40;100.00;101072.13;5058591;28;20029;-88
2022/09/07 02:03:02;;;;;;;10.93;5.95;;;;;;;15.40;100.00;101075.69;5058686;28;20024;-88
2022/09/07 02:05:35;;;;;;;9.10;5.87;;;;;;;15.40;100.00;101066.66;5058240;28;20036;-88
2022/09/07 02:08:17;;;;;;;8.05;5.72;;;;;;;15.41;100.00;101074.63;5058601;28;20035;-88
2022/09/07 02:11:03;;;;;;;6.78;5.55;;;;;;;15.40;100.00;101067.50;5058359;28;20051;-88
2022/09/07 02:13:37;;;;;;;9.35;6.07;;;;;;;15.46;100.00;101067.56;5076324;28;20024;-88
2022/09/07 02:16:20;;;;;;;8.40;5.93;;;;;;;15.40;100.00;101074.88;5058200;28;20039;-88
2022/09/07 02:18:52;;;;;;;10.23;5.93;;;;;;;15.44;100.00;101068.69;5076455;28;20079;-88
2022/09/07 02:21:31;;;;;;;9.73;6.13;;;;;;;15.35;100.00;101061.09;5058634;28;20111;-88
2022/09/07 02:24:03;;;;;;;8.05;5.95;;;;;;;15.37;100.00;101064.44;5058164;28;20028;-88
2022/09/07 02:26:29;;;;;;;8.23;5.60;;;;;;;15.32;100.00;101069.78;5075997;28;20044;-88
2022/09/07 02:28:56;;;;;;;8.73;5.57;;;;;;;15.24;100.00;101066.34;5058151;28;20024;-89
2022/09/07 02:31:24;;;;;;;7.50;5.40;;;;;;;15.25;100.00;101069.88;5058700;28;20020;-88
2022/09/07 02:33:50;;;;;;;7.85;5.60;;;;;;;15.16;100.00;101069.47;5041716;28;20090;-88
2022/09/07 02:36:20;;;;;;;7.78;5.63;;;;;;;15.22;100.00;101071.22;5057332;28;20036;-88
2022/09/07 02:38:53;;;;;;;8.38;6.10;;;;;;;15.25;100.00;101072.63;5057821;28;20024;-88
2022/09/07 02:41:30;;;;;;;9.07;5.97;;;;;;;15.19;100.00;101084.53;5041756;28;20040;-88
2022/09/07 02:44:01;;;;;;;8.30;5.77;;;;;;;15.14;100.00;101078.97;5057814;28;20048;-88
2022/09/07 02:46:33;;;;;;;10.93;5.97;;;;;;;15.12;100.00;101078.34;5057855;28;20029;-89
2022/09/07 02:49:22;;;;;;;11.38;6.55;;;;;;;15.08;100.00;101072.56;5057758;28;20032;-88
2022/09/07 02:52:10;;;;;;;10.13;5.68;;;;;;;15.10;100.00;101067.66;5058132;28;20044;-88
2022/09/07 02:55:09;;;;;;;7.30;5.70;;;;;;;15.11;100.00;101074.81;5057690;28;20025;-87
2022/09/07 02:57:49;;;;;;;7.50;6.03;;;;;;;15.13;100.00;101072.66;5057486;28;20035;-88
2022/09/07 03:00:24;;;;;;;9.60;6.30;;;;;;;15.12;100.00;101065.53;5075758;28;20025;-88
2022/09/07 03:03:05;;;;;;;11.02;6.80;;;;;;;15.12;100.00;101078.34;5057586;28;20070;-88
2022/09/07 03:05:56;;;;;;;12.77;6.65;;;;;;;15.09;100.00;101088.72;5057233;28;20021;-88
2022/09/07 03:08:35;;;;;;;7.82;6.50;;;;;;;15.05;100.00;101084.78;5057380;28;20020;-88
2022/09/07 03:11:05;;;;;;;10.60;6.50;;;;;;;15.14;100.00;101085.25;5057548;28;20098;-88
2022/09/07 03:13:41;;;;;;;;;;;;;;;;;;;;;
2022/09/07 03:16:16;;;;;;;12.60;7.82;;;;;;;15.21;100.00;101079.66;5059427;28;20496;-87
2022/09/07 03:18:43;;;;;;;9.40;7.13;;;;;;;15.30;100.00;101074.66;5057229;28;20044;-88
2022/09/07 03:21:11;;;;;;;14.02;7.43;;;;;;;15.26;100.00;101069.69;5074991;28;20074;-88
2022/09/07 03:23:40;;;;;;;10.20;7.27;;;;;;;15.26;100.00;101063.38;5057044;28;20025;-88
2022/09/07 03:26:06;;;;;;;10.45;7.10;;;;;;;15.32;100.00;101054.19;5056831;28;20035;-88
2022/09/07 03:28:33;;;;;;;11.37;7.20;;;;;;;15.36;100.00;101063.56;5057202;28;20028;-88
2022/09/07 03:31:02;;;;;;;11.15;7.60;;;;;;;15.41;100.00;101074.63;5074700;28;20041;-88
2022/09/07 03:33:30;;;;;;;11.43;7.47;;;;;;;15.41;100.00;101090.19;5056973;28;20119;-87
2022/09/07 03:36:01;;;;;;;11.60;6.80;;;;;;;15.36;100.00;101073.69;5056134;28;20032;-88
2022/09/07 03:38:26;;;;;;;9.52;6.72;;;;;;;15.46;100.00;101064.84;5057007;28;20366;-88
2022/09/07 03:41:05;;;;;;;9.63;7.40;;;;;;;15.41;100.00;101058.22;5057035;28;20040;-88
2022/09/07 03:43:33;;;;;;;9.48;6.85;;;;;;;15.41;100.00;101068.31;5056787;28;20032;-88
2022/09/07 03:46:01;;;;;;;8.52;7.18;;;;;;;15.44;100.00;101082.34;5074288;28;20094;-88
2022/09/07 03:48:29;;;;;;;10.23;7.73;;;;;;;15.39;100.00;101074.03;5056690;28;20040;-88
2022/09/07 03:51:07;;;;;;;9.82;6.72;;;;;;;15.35;100.00;101078.31;5056648;28;20024;-87
2022/09/07 03:53:40;;;;;;;11.05;7.72;;;;;;;15.35;100.00;101064.63;5056366;28;20032;-88
2022/09/07 03:56:16;;;;;;;11.15;7.78;;;;;;;15.38;100.00;101066.91;5056583;28;20478;-88
2022/09/07 03:58:43;;;;;;;10.68;6.85;;;;;;;15.34;100.00;101059.41;5056912;28;20477;-88
2022/09/07 04:01:12;;;;;;;9.30;6.83;;;;;;;15.34;100.00;101054.78;5056491;28;20043;-88
2022/09/07 04:03:38;;;;;;;8.80;7.35;;;;;;;15.27;100.00;101049.44;5056195;28;20389;-88
2022/09/07 04:06:09;;;;;;;9.55;7.05;;;;;;;15.25;100.00;101043.41;5055933;28;20478;-88
2022/09/07 04:08:36;;;;;;;8.55;6.90;;;;;;;15.34;100.00;101032.06;5056268;28;20040;-88
2022/09/07 04:11:14;;;;;;;10.35;7.65;;;;;;;15.35;100.00;101028.28;5055985;28;20028;-88
2022/09/07 04:13:47;;;;;;;10.00;7.30;;;;;;;15.39;100.00;101029.47;5056494;28;20193;-88
2022/09/07 04:16:19;;;;;;;10.07;7.35;;;;;;;15.39;100.00;101021.25;5056329;28;20025;-88
2022/09/07 04:18:45;;;;;;;10.75;8.00;;;;;;;15.38;100.00;101025.06;5055524;28;20041;-89
2022/09/07 04:21:13;;;;;;;12.48;7.78;;;;;;;15.41;100.00;101022.69;5055837;28;20040;-89
2022/09/07 04:23:40;;;;;;;11.03;7.17;;;;;;;15.39;100.00;101013.06;5055868;28;20025;-88
2022/09/07 04:26:15;;;;;;;11.05;7.40;;;;;;;15.36;100.00;101016.28;5039654;28;20098;-89
2022/09/07 04:28:44;;;;;;;9.63;7.90;;;;;;;15.35;100.00;101031.00;5039466;28;20033;-88
2022/09/07 04:31:10;;;;;;;9.10;7.38;;;;;;;15.28;100.00;101047.56;5055961;28;20054;-88
2022/09/07 04:33:45;;;;;;;11.97;7.50;;;;;;;15.24;100.00;101043.66;5039170;28;20028;-88
2022/09/07 04:36:18;;;;;;;10.63;7.50;;;;;;;15.16;100.00;101047.59;5055403;28;20478;-88
2022/09/07 04:38:44;;;;;;;10.93;8.02;;;;;;;15.13;100.00;101053.53;5056283;28;20473;-89
2022/09/07 04:41:15;;;;;;;10.55;8.18;;;;;;;15.06;100.00;101044.66;5055800;28;20152;-89
2022/09/07 04:43:42;;;;;;;12.18;8.38;;;;;;;15.03;100.00;101045.94;5073807;28;20044;-89
2022/09/07 04:46:25;;;;;;;10.20;7.97;;;;;;;15.08;100.00;101045.22;5055336;28;20080;-89
2022/09/07 04:48:55;;;;;;;13.15;7.93;;;;;;;15.17;100.00;101046.50;5055183;28;20173;-88
2022/09/07 04:51:22;;;;;;;11.77;8.20;;;;;;;15.23;100.00;101037.34;5055806;28;20024;-88
2022/09/07 04:53:50;;;;;;;10.55;8.43;;;;;;;15.31;100.00;101030.69;5055551;28;20025;-88
2022/09/07 04:56:17;;;;;;;11.65;8.73;;;;;;;15.30;100.00;101039.13;5055863;28;20079;-88
2022/09/07 04:58:42;;;;;;;14.73;7.87;;;;;;;15.33;100.00;101034.00;5039020;28;20039;-88
2022/09/07 05:01:16;;;;;;;12.32;8.35;;;;;;;15.36;100.00;101043.63;5055814;28;20064;-88
2022/09/07 05:03:45;;;;;;;11.77;8.50;;;;;;;15.36;100.00;101046.34;5055649;28;20165;-88
2022/09/07 05:06:17;;;;;;;12.60;9.13;;;;;;;15.38;100.00;101034.09;5055067;28;20040;-88
2022/09/07 05:08:58;;;;;;;13.63;8.93;;;;;;;15.34;100.00;101032.94;5055344;28;20028;-89
2022/09/07 05:11:25;;;;;;;12.32;8.80;;;;;;;15.33;100.00;101024.97;5055832;28;20086;-86
2022/09/07 05:16:36;;;;;;;11.15;8.32;;;;;;;15.38;100.00;101025.06;5073197;28;20072;-87
2022/09/07 05:19:04;;;;;;;12.57;9.23;;;;;;;15.35;100.00;101028.28;5055189;28;20029;-86
2022/09/07 05:21:32;;;;;;;14.80;9.25;;;;;;;15.36;100.00;101022.56;5055219;28;20021;-86
2022/09/07 05:24:00;;;;;;;14.13;9.70;;;;;;;15.35;100.00;101033.75;5055035;28;20036;-87
2022/09/07 05:26:41;;;;;;;13.15;9.10;;;;;;;15.32;100.00;101039.69;5038465;28;20094;-86
2022/09/07 05:29:08;;;;;;;13.30;10.33;;;;;;;15.24;100.00;101024.53;5055235;28;20097;-84
2022/09/07 05:31:36;;;;;;;16.83;11.55;;;;;;;15.25;100.00;101031.63;5072098;28;20070;-86
2022/09/07 05:34:04;;;;;;;17.83;11.38;;;;;;;15.23;100.00;101026.41;5055072;28;20127;-86
2022/09/07 05:36:30;;;;;;;15.60;11.32;;;;;;;15.22;100.00;101032.97;5054763;28;20025;-87
2022/09/07 05:39:00;;;;;;;17.83;11.80;;;;;;;15.20;100.00;101035.09;5055336;28;20098;-86
2022/09/07 05:41:38;;;;;;;16.30;11.50;;;;;;;15.25;100.00;101040.69;5055077;28;20036;-88
2022/09/07 05:44:08;;;;;;;16.88;11.70;;;;;;;15.28;100.00;101044.84;5039390;28;20031;-87
2022/09/07 05:46:52;;;;;;;;;;;;;;;;;;;;;
2022/09/07 05:49:39;;;;;;;;;;;;;;;;;;;;;
2022/09/07 05:52:13;;;;;;;22.35;12.38;;;;;;;15.33;100.00;101041.38;5057214;28;20041;-91
2022/09/07 05:54:48;;;;;;;16.57;11.90;;;;;;;15.34;100.00;101034.81;5055605;28;20033;-90
2022/09/07 05:57:14;;;;;;;18.45;12.35;;;;;;;15.35;100.00;101055.63;5054856;28;20066;-88
2022/09/07 05:59:42;;;;;;;19.10;12.53;;;;;;;15.36;100.00;101051.81;5063118;28;20031;-88
2022/09/07 06:02:13;;;;;;;17.27;12.00;;;;;;;15.32;100.00;101070.59;5068214;28;20025;-88
2022/09/07 06:04:43;;;;;;;20.52;13.15;;;;;;;15.34;100.00;101059.41;5062165;28;20048;-94
2022/09/07 06:07:17;;;;;;;19.20;13.50;;;;;;;15.37;100.00;101069.88;5076426;28;20028;-96
2022/09/07 06:09:45;;;;;;;18.95;12.95;;;;;;;15.42;100.00;101069.97;5097916;28;20092;-93
2022/09/07 06:12:13;;;;;;;20.70;12.77;;;;;;;15.42;100.00;101059.88;5063502;28;20096;-96
2022/09/07 06:15:00;;;;;;;21.08;12.80;;;;;;;15.49;100.00;101065.22;5080498;28;20123;-95
2022/09/07 06:17:30;;;;;;;20.38;13.77;;;;;;;15.46;100.00;101060.22;5063762;28;20028;-95
2022/09/07 06:19:56;;;;;;;25.88;14.57;;;;;;;15.52;100.00;101061.97;5080254;28;20062;-95
2022/09/07 06:22:26;;;;;;;24.92;14.20;;;;;;;15.55;100.00;101066.16;5079976;28;20104;-87
2022/09/07 06:24:54;;;;;;;22.80;14.37;;;;;;;15.63;100.00;101079.41;5063136;28;20051;-94
2022/09/07 06:27:19;;;;;;;23.35;14.48;;;;;;;15.72;100.00;101077.13;5079465;28;20078;-93
2022/09/07 06:29:53;;;;;;;26.53;15.10;;;;;;;15.81;100.00;101072.13;5078556;28;20423;-89
2022/09/07 06:32:21;;;;;;;26.58;16.48;;;;;;;15.92;100.00;101088.47;5080348;28;20032;-96
2022/09/07 06:34:46;;;;;;;20.27;14.75;;;;;;;16.00;100.00;101079.03;5079712;28;20042;-96
2022/09/07 06:37:12;;;;;;;25.13;15.13;;;;;;;16.02;100.00;101081.53;5078956;28;20469;-96
2022/09/07 06:39:38;;;;;;;25.77;16.25;;;;;;;16.09;100.00;101080.31;5079259;28;20032;-96
2022/09/07 06:42:03;;;;;;;29.07;17.53;;;;;;;16.16;100.00;101079.31;5097270;28;20028;-96
2022/09/07 06:44:35;;;;;;;27.15;18.52;;;;;;;16.17;100.00;101086.47;5079245;28;20028;-95
2022/09/07 06:47:23;;;;;;;28.73;18.77;;;;;;;16.20;100.00;101078.59;5079302;28;20044;-95
2022/09/07 06:49:51;;;;;;;29.13;19.10;;;;;;;16.36;100.00;101081.56;5079126;28;20024;-93
2022/09/07 06:52:19;;;;;;;31.30;19.65;;;;;;;16.54;100.00;101083.25;5078629;28;20039;-94
2022/09/07 06:54:49;;;;;;;36.53;21.38;;;;;;;16.61;100.00;101092.94;5078839;28;20047;-94
2022/09/07 06:57:18;;;;;;;27.70;18.60;;;;;;;16.68;100.00;101090.03;5062485;28;20043;-94
2022/09/07 06:59:48;;;;;;;38.97;22.77;;;;;;;16.77;100.00;101094.03;5078962;28;20031;-94
2022/09/07 07:02:24;;;;;;;37.03;22.93;;;;;;;16.92;100.00;101090.72;5062494;28;20028;-94
2022/09/07 07:04:49;;;;;;;34.90;23.77;;;;;;;17.01;100.00;101093.84;5079265;28;20035;-94
2022/09/07 07:07:23;;;;;;;38.33;24.03;;;;;;;17.05;100.00;101092.25;5078993;28;20473;-95
2022/09/07 07:09:49;;;;;;;40.08;24.67;;;;;;;17.12;100.00;101094.81;5060988;28;20024;-94
2022/09/07 07:12:17;;;;;;;39.95;23.85;;;;;;;17.19;100.00;101099.00;5078076;28;20039;-93
2022/09/07 07:14:42;;;;;;;39.75;26.27;;;;;;;17.22;100.00;101100.44;5078447;28;20492;-94
2022/09/07 07:17:15;;;;;;;40.97;26.90;;;;;;;17.30;100.00;101094.50;5078296;28;20040;-94
2022/09/07 07:19:40;;;;;;;39.03;26.30;;;;;;;17.51;100.00;101094.78;5062320;28;20036;-93
2022/09/07 07:22:06;;;;;;;48.27;27.97;;;;;;;17.63;100.00;101098.19;5078474;28;20093;-95
2022/09/07 07:24:34;;;;;;;39.03;26.73;;;;;;;17.70;100.00;101098.84;5078304;28;20076;-94
2022/09/07 07:27:06;;;;;;;37.00;27.83;;;;;;;17.70;100.00;101108.97;5078472;28;20119;-95
2022/09/07 07:29:34;;;;;;;38.17;26.10;;;;;;;17.65;100.00;101114.41;5078085;28;20027;-95
2022/09/07 07:32:00;;;;;;;40.75;26.38;;;;;;;17.57;100.00;101110.19;5078441;28;20035;-94
2022/09/07 07:35:03;;;;;;;37.13;26.80;;;;;;;17.61;100.00;101116.84;5078385;28;20066;-90
2022/09/07 07:37:36;;;;;;;38.00;25.90;;;;;;;17.66;100.00;101113.31;5077687;28;20073;-91
2022/09/07 07:40:12;;;;;;;40.17;26.67;;;;;;;17.71;100.00;101114.19;5078321;28;20066;-94
2022/09/07 07:42:38;;;;;;;35.40;25.80;;;;;;;17.86;100.00;101110.81;5096306;28;20084;-93
2022/09/07 07:45:19;;;;;;;36.50;24.90;;;;;;;18.11;100.00;101119.59;5077640;28;20125;-96
2022/09/07 07:47:49;;;;;;;33.90;25.17;;;;;;;18.03;100.00;101121.72;5061707;28;20230;-94
2022/09/07 07:50:25;;;;;;;31.15;22.05;;;;;;;17.97;100.00;101122.75;5077237;28;20039;-94
2022/09/07 07:52:53;;;;;;;32.88;23.13;;;;;;;17.86;100.00;101118.19;5062660;28;20035;-92
2022/09/07 07:55:23;;;;;;;32.00;22.70;;;;;;;17.75;100.00;101120.00;5077147;28;20035;-90
2022/09/07 07:57:51;;;;;;;30.88;23.15;;;;;;;17.69;100.00;101127.34;5060271;28;20362;-88
2022/09/07 08:00:20;;;;;;;32.37;23.07;;;;;;;17.65;100.00;101130.88;5059843;28;20031;-90
2022/09/07 08:02:47;;;;;;;32.08;23.23;;;;;;;17.69;100.00;101132.84;5076416;28;20028;-87
2022/09/07 08:05:18;;;;;;;32.15;23.42;;;;;;;17.73;100.00;101130.44;5073316;28;20038;-90
2022/09/07 08:07:45;;;;;;;33.30;23.38;;;;;;;17.90;100.00;101124.88;5060711;28;20129;-87
2022/09/07 08:10:17;;;;;;;28.92;22.02;;;;;;;18.01;100.00;101131.28;5054832;28;20039;-88
2022/09/07 08:12:42;;;;;;;32.13;20.50;;;;;;;18.04;100.00;101141.75;5056432;28;20035;-90
2022/09/07 08:18:00;;;;;;;29.77;22.23;;;;;;;18.25;100.00;101131.81;5060212;28;20378;-90
2022/09/07 08:20:28;;;;;;;27.43;20.97;;;;;;;18.29;100.00;101132.13;5061717;28;20090;-89
2022/09/07 08:23:02;;;;;;;28.05;21.05;;;;;;;18.28;100.00;101139.53;5040244;28;20052;-89
2022/09/07 08:25:29;;;;;;;27.75;21.05;;;;;;;18.35;100.00;101136.56;5064821;28;20043;-90
2022/09/07 08:27:57;;;;;;;26.15;21.02;;;;;;;18.40;100.00;101140.19;5056985;28;20036;-90
2022/09/07 08:30:25;;;;;;;27.65;21.08;;;;;;;18.41;100.00;101135.56;5079052;28;20089;-87
2022/09/07 08:32:53;;;;;;;26.93;20.17;;;;;;;18.41;100.00;101144.59;5056860;28;20478;-88
2022/09/07 08:35:29;;;;;;;25.75;19.45;;;;;;;18.52;100.00;101139.19;5039325;28;20040;-90
2022/09/07 08:37:55;;;;;;;29.08;20.08;;;;;;;18.63;100.00;101146.44;5057013;28;20024;-89
2022/09/07 08:40:31;;;;;;;;;;;;;;;;;;;;;
2022/09/07 08:43:16;;;;;;;25.85;17.30;;;;;;;18.82;97.83;101146.84;5057634;28;20034;-89
2022/09/07 08:45:50;;;;;;;22.58;16.98;;;;;;;18.81;97.13;101138.88;5072452;28;20043;-88
2022/09/07 08:48:25;;;;;;;21.17;16.65;;;;;;;18.86;97.53;101144.44;5067465;28;20044;-88
2022/09/07 08:51:22;;;;;;;21.77;17.40;;;;;;;18.94;97.73;101149.44;5069596;28;20040;-88
2022/09/07 08:53:49;;;;;;;19.87;17.23;;;;;;;18.98;95.68;101150.56;5074400;28;20044;-88
2022/09/07 08:56:30;;;;;;;22.45;15.98;;;;;;;19.04;96.23;101149.50;5058956;28;20040;-89
2022/09/07 08:59:13;;;;;;;20.27;15.25;;;;;;;19.09;95.72;101159.75;5063664;28;20041;-90
2022/09/07 09:01:41;;;;;;;18.92;14.98;;;;;;;19.14;94.57;101148.75;5072440;28;20025;-89
2022/09/07 09:04:23;;;;;;;20.15;14.02;;;;;;;19.27;93.94;101144.72;5075332;28;20098;-90
2022/09/07 09:06:59;;;;;;;20.33;14.90;;;;;;;19.49;92.91;101152.81;5063792;28;20116;-89
2022/09/07 09:09:57;;;;;;;15.10;12.05;;;;;;;19.63;90.32;101142.13;5071163;28;20152;-89
2022/09/07 09:12:45;;;;;;;15.80;12.68;;;;;;;19.83;90.51;101157.94;5032184;28;20495;-89
2022/09/07 09:15:25;;;;;;;17.40;12.50;;;;;;;19.91;89.65;101156.56;5060596;28;20035;-88
2022/09/07 09:18:05;;;;;;;16.33;10.98;;;;;;;20.03;86.44;101148.06;5072513;28;20028;-87
2022/09/07 09:20:34;;;;;;;11.27;9.50;;;;;;;20.22;84.27;101151.13;5072230;28;20105;-88
2022/09/07 09:23:11;;;;;;;15.13;9.80;;;;;;;20.43;82.85;101143.72;5071703;28;20466;-86
2022/09/07 09:26:00;;;;;;;14.98;9.57;;;;;;;20.54;81.37;101141.81;5071622;28;20024;-86
2022/09/07 09:28:25;;;;;;;13.95;8.95;;;;;;;20.59;80.21;101148.13;5072035;28;20474;-86
2022/09/07 09:30:50;;;;;;;15.20;9.07;;;;;;;20.65;79.72;101155.31;5054804;28;20052;-87
2022/09/07 09:33:26;;;;;;;11.63;8.20;;;;;;;20.70;78.46;101146.25;5055420;28;20436;-87
2022/09/07 09:35:58;;;;;;;10.65;7.43;;;;;;;20.72;79.16;101146.78;5058720;28;20028;-87
2022/09/07 09:38:39;;;;;;;10.45;6.93;;;;;;;20.74;77.28;101149.25;5075898;28;20028;-87
2022/09/07 09:41:07;;;;;;;11.13;6.38;;;;;;;20.80;76.94;101149.00;5075633;28;20182;-88
2022/09/07 09:43:39;;;;;;;11.53;5.80;;;;;;;20.90;75.94;101139.84;5075839;28;20037;-87
2022/09/07 09:46:18;;;;;;;9.40;5.50;;;;;;;21.06;75.52;101140.66;5058535;28;20451;-88
2022/09/07 09:49:10;;;;;;;8.93;5.63;;;;;;;21.26;75.58;101147.22;5058771;28;20191;-88
2022/09/07 09:51:43;;;;;;;6.28;3.80;;;;;;;21.45;72.80;101140.03;5075515;28;20076;-87
2022/09/07 09:54:23;;;;;;;9.13;4.53;;;;;;;21.63;72.23;101143.28;5058774;28;20047;-87
2022/09/07 09:56:49;;;;;;;8.33;4.40;;;;;;;21.77;70.27;101141.56;5076109;28;20090;-88
2022/09/07 09:59:17;;;;;;;9.77;4.95;;;;;;;22.11;68.64;101148.28;5076436;28;20405;-87
2022/09/07 10:01:45;;;;;;;9.60;3.92;;;;;;;22.29;67.55;101155.06;5075779;28;20166;-88
2022/09/07 10:04:23;;;;;;;9.90;4.20;;;;;;;22.38;67.17;101150.59;5076606;28;20458;-88
2022/09/07 10:06:50;;;;;;;6.88;3.38;;;;;;;22.44;65.30;101141.19;5058841;28;20024;-86
2022/09/07 10:09:20;;;;;;;10.93;3.63;;;;;;;22.41;65.07;101141.72;5076169;28;20025;-87
2022/09/07 10:11:57;;;;;;;8.80;3.05;;;;;;;22.46;66.57;101135.34;5071308;28;20036;-88
2022/09/07 10:14:34;;;;;;;8.05;2.90;;;;;;;22.58;64.31;101136.63;5067746;28;20032;-87
2022/09/07 10:17:09;;;;;;;8.70;3.40;;;;;;;22.66;64.07;101135.19;5096467;28;20514;-88
2022/09/07 10:19:41;;;;;;;6.88;2.80;;;;;;;22.78;63.66;101119.03;5096657;28;20051;-88
2022/09/07 10:22:32;;;;;;;7.95;2.63;;;;;;;23.00;66.16;101114.09;5061668;28;20032;-88
2022/09/07 10:25:26;;;;;;;6.90;2.58;;;;;;;23.08;63.47;101128.13;5041825;28;20124;-87
2022/09/07 10:28:03;;;;;;;5.68;2.60;;;;;;;23.22;62.27;101131.06;5070458;28;20120;-87
2022/09/07 10:30:39;;;;;;;6.00;2.60;;;;;;;23.25;61.42;101121.31;5078096;28;20043;-88
2022/09/07 10:33:26;;;;;;;12.80;2.67;;;;;;;23.43;61.84;101123.34;5077897;28;20036;-87
2022/09/07 10:36:39;;;;;;;7.60;2.40;;;;;;;23.41;60.66;101121.97;5077811;28;20035;-88
2022/09/07 10:39:20;;;;;;;8.35;2.30;;;;;;;23.47;60.74;101118.00;5071148;28;20040;-88
2022/09/07 10:42:03;;;;;;;6.03;2.20;;;;;;;23.56;58.94;101110.72;5078188;28;20052;-88
2022/09/07 10:44:44;;;;;;;8.27;2.63;;;;;;;23.62;59.48;101114.22;5077192;28;20074;-88
2022/09/07 10:47:20;;;;;;;6.18;2.53;;;;;;;23.73;57.06;101115.75;5059967;28;20131;-88
2022/09/07 10:50:04;;;;;;;8.48;2.70;;;;;;;23.85;57.56;101104.22;5053933;28;20148;-88
2022/09/07 10:53:15;;;;;;;7.68;2.60;;;;;;;23.80;58.09;101110.66;5054485;28;20039;-88
2022/09/07 10:56:01;;;;;;;7.70;2.75;;;;;;;23.94;57.10;101104.41;5054098;28;20032;-91
2022/09/07 10:58:46;;;;;;;5.23;2.30;;;;;;;24.15;56.26;101105.75;5053608;28;20422;-91
2022/09/07 11:01:45;;;;;;;8.50;2.40;;;;;;;24.51;55.83;101096.03;5053894;28;20082;-90
2022/09/07 11:04:34;;;;;;;7.20;2.53;;;;;;;24.75;53.45;101107.00;5040645;28;20045;-90
2022/09/07 11:07:22;;;;;;;6.05;2.58;;;;;;;24.29;53.39;101094.72;5054057;28;20064;-89
2022/09/07 11:09:57;;;;;;;8.38;2.72;;;;;;;24.47;53.55;101098.56;5054159;28;20068;-89
2022/09/07 11:12:36;;;;;;;6.13;2.43;;;;;;;25.04;52.25;101097.59;5054823;28;20033;-90
2022/09/07 11:15:14;;;;;;;6.65;2.47;;;;;;;25.16;51.70;101091.53;5054288;28;20095;-89
2022/09/07 11:17:46;;;;;;;8.40;3.00;;;;;;;26.85;47.96;101092.34;5053987;28;20036;-90
2022/09/07 11:20:34;;;;;;;6.28;2.50;;;;;;;28.58;43.80;101086.53;5044598;28;20025;-90
2022/09/07 11:23:20;;;;;;;9.73;2.83;;;;;;;28.22;45.07;101084.16;5033788;28;20029;-90
2022/09/07 11:26:03;;;;;;;10.40;2.80;;;;;;;30.03;41.51;101088.44;5033823;28;20038;-90
2022/09/07 11:28:46;;;;;;;8.30;2.80;;;;;;;29.95;38.76;101074.53;5034124;28;20552;-91
2022/09/07 11:31:25;;;;;;;5.95;2.95;;;;;;;30.84;39.20;101090.09;5034315;28;20068;-91
2022/09/07 11:34:05;;;;;;;5.25;2.40;;;;;;;31.54;37.67;101077.97;5034670;28;20025;-90
2022/09/07 11:36:41;;;;;;;6.07;2.50;;;;;;;32.34;34.82;101073.53;5033503;28;20029;-90
2022/09/07 11:39:16;;;;;;;3.53;2.40;;;;;;;30.82;36.56;101084.03;5033772;28;20033;-91
2022/09/07 11:41:52;;;;;;;7.38;2.60;;;;;;;30.92;36.64;101077.97;5033717;28;20477;-89
2022/09/07 11:44:35;;;;;;;3.80;2.42;;;;;;;30.72;36.63;101076.91;5033338;28;20026;-88
2022/09/07 11:47:16;;;;;;;6.32;2.85;;;;;;;30.55;37.49;101073.13;5033117;28;20453;-88
2022/09/07 11:49:42;;;;;;;4.88;2.58;;;;;;;30.29;34.93;101072.56;5033032;28;20041;-89
2022/09/07 11:52:37;;;;;;;7.40;2.20;;;;;;;31.39;33.84;101076.69;5017075;28;20044;-89
2022/09/07 11:55:10;;;;;;;7.60;2.60;;;;;;;31.07;34.77;101070.88;5032763;28;20033;-89